createdAt,value
2018-08-13T00:01:03.621Z,2.20
2018-08-13T00:03:32.291Z,1.93
2018-08-13T00:06:01.127Z,2.37
2018-08-13T00:08:29.691Z,2.93
2018-08-13T00:10:58.275Z,3.10
2018-08-13T00:13:26.804Z,2.17
2018-08-13T00:15:55.439Z,1.87
2018-08-13T00:18:24.179Z,2.20
2018-08-13T00:20:53.210Z,4.10
2018-08-13T00:23:22.234Z,2.10
2018-08-13T00:25:51.146Z,2.20
2018-08-13T00:28:20.228Z,2.13
2018-08-13T00:30:49.535Z,2.00
2018-08-13T00:33:18.781Z,2.60
2018-08-13T00:35:48.151Z,2.00
2018-08-13T00:38:17.182Z,2.00
2018-08-13T00:40:46.373Z,1.70
2018-08-13T00:43:15.595Z,1.83
2018-08-13T00:45:44.843Z,1.80
2018-08-13T00:48:13.946Z,2.00
2018-08-13T00:50:43.203Z,2.07
2018-08-13T00:53:12.256Z,2.53
2018-08-13T00:55:41.337Z,2.00
2018-08-13T00:58:10.427Z,2.20
2018-08-13T01:00:39.544Z,1.93
2018-08-13T01:03:08.850Z,1.93
2018-08-13T01:05:37.921Z,2.03
2018-08-13T01:08:07.162Z,1.97
2018-08-13T01:10:36.369Z,2.00
2018-08-13T01:13:05.496Z,2.03
2018-08-13T01:15:34.559Z,1.90
2018-08-13T01:18:03.756Z,2.03
2018-08-13T01:20:32.687Z,1.93
2018-08-13T01:23:01.758Z,1.80
2018-08-13T01:25:30.859Z,2.30
2018-08-13T01:27:59.956Z,2.63
2018-08-13T01:30:29.049Z,1.90
2018-08-13T01:32:58.164Z,2.50
2018-08-13T01:35:27.197Z,2.40
2018-08-13T01:37:56.343Z,1.90
2018-08-13T01:40:25.180Z,2.10
2018-08-13T01:42:54.035Z,1.90
2018-08-13T01:45:23.211Z,2.20
2018-08-13T01:47:52.045Z,1.70
2018-08-13T01:50:20.981Z,2.07
2018-08-13T01:52:49.687Z,1.60
2018-08-13T01:55:18.549Z,1.70
2018-08-13T01:57:47.132Z,1.80
2018-08-13T02:00:16.712Z,1.67
2018-08-13T02:02:45.265Z,2.00
2018-08-13T02:05:13.758Z,1.77
2018-08-13T02:07:42.457Z,1.73
2018-08-13T02:10:12.170Z,1.53
2018-08-13T02:12:40.992Z,1.90
2018-08-13T02:15:09.725Z,1.73
2018-08-13T02:17:38.322Z,1.90
2018-08-13T02:20:08.043Z,1.60
2018-08-13T02:22:36.738Z,1.73
2018-08-13T02:25:06.211Z,2.40
2018-08-13T02:27:34.694Z,2.63
2018-08-13T02:30:03.304Z,2.57
2018-08-13T02:32:31.851Z,2.80
2018-08-13T02:35:00.407Z,2.90
2018-08-13T02:37:28.966Z,3.03
2018-08-13T02:39:57.467Z,2.63
2018-08-13T02:42:25.963Z,2.97
2018-08-13T02:44:54.497Z,2.93
2018-08-13T02:47:23.045Z,2.80
2018-08-13T02:49:51.599Z,2.70
2018-08-13T02:52:20.243Z,2.50
2018-08-13T02:54:48.765Z,2.53
2018-08-13T02:57:17.341Z,2.80
2018-08-13T02:59:45.836Z,2.93
2018-08-13T03:02:14.368Z,2.60
2018-08-13T03:04:42.927Z,2.90
2018-08-13T03:07:11.427Z,2.80
2018-08-13T03:09:40.009Z,2.50
2018-08-13T03:12:08.579Z,3.07
2018-08-13T03:14:37.171Z,3.13
2018-08-13T03:17:05.730Z,2.57
2018-08-13T03:19:34.231Z,3.23
2018-08-13T03:22:02.958Z,2.70
2018-08-13T03:24:31.506Z,2.70
2018-08-13T03:27:00.034Z,4.30
2018-08-13T03:29:28.590Z,2.83
2018-08-13T03:31:57.170Z,2.73
2018-08-13T03:34:25.916Z,2.87
2018-08-13T03:36:54.446Z,2.47
2018-08-13T03:39:23.039Z,2.30
2018-08-13T03:41:51.544Z,2.53
2018-08-13T03:44:20.590Z,2.77
2018-08-13T03:46:49.100Z,2.90
2018-08-13T03:49:17.606Z,2.80
2018-08-13T03:51:46.186Z,2.43
2018-08-13T03:54:14.793Z,3.00
2018-08-13T03:56:43.333Z,3.03
2018-08-13T03:59:11.827Z,3.97
2018-08-13T04:01:40.402Z,3.33
2018-08-13T04:04:08.967Z,2.90
2018-08-13T04:06:37.472Z,2.63
2018-08-13T04:09:08.419Z,3.03
2018-08-13T04:11:37.161Z,3.53
2018-08-13T04:14:07.017Z,3.20
2018-08-13T04:16:35.510Z,3.27
2018-08-13T04:19:04.079Z,6.37
2018-08-13T04:21:32.578Z,4.00
2018-08-13T04:24:01.082Z,3.00
2018-08-13T04:26:29.617Z,3.40
2018-08-13T04:28:58.119Z,4.23
2018-08-13T04:31:26.609Z,3.23
2018-08-13T04:33:55.137Z,3.60
2018-08-13T04:36:23.629Z,3.20
2018-08-13T04:38:52.170Z,3.50
2018-08-13T04:41:20.764Z,3.40
2018-08-13T04:43:49.382Z,3.80
2018-08-13T04:46:17.905Z,3.10
2018-08-13T04:48:46.416Z,3.50
2018-08-13T04:51:14.969Z,4.00
2018-08-13T04:53:43.469Z,4.87
2018-08-13T04:56:12.022Z,3.10
2018-08-13T04:58:40.581Z,3.60
2018-08-13T05:01:09.206Z,4.93
2018-08-13T05:03:37.748Z,3.27
2018-08-13T05:06:06.311Z,6.87
2018-08-13T05:08:34.818Z,3.90
2018-08-13T05:11:03.303Z,3.97
2018-08-13T05:13:31.890Z,3.73
2018-08-13T05:16:00.451Z,3.73
2018-08-13T05:18:28.942Z,4.17
2018-08-13T05:20:57.418Z,3.90
2018-08-13T05:23:25.892Z,4.83
2018-08-13T05:25:54.339Z,3.67
2018-08-13T05:28:22.819Z,3.50
2018-08-13T05:30:51.367Z,3.57
2018-08-13T05:33:19.872Z,6.67
2018-08-13T05:35:48.474Z,3.57
2018-08-13T05:38:17.005Z,3.87
2018-08-13T05:40:45.646Z,3.20
2018-08-13T05:43:14.237Z,3.23
2018-08-13T05:45:42.743Z,4.87
2018-08-13T05:48:11.280Z,5.43
2018-08-13T05:50:39.882Z,5.47
2018-08-13T05:53:08.386Z,3.63
2018-08-13T05:55:36.926Z,3.13
2018-08-13T05:58:05.533Z,2.83
2018-08-13T06:00:34.168Z,2.83
2018-08-13T06:03:02.733Z,2.87
2018-08-13T06:05:31.238Z,2.53
2018-08-13T06:07:59.805Z,2.83
2018-08-13T06:10:28.231Z,2.03
2018-08-13T06:12:56.786Z,2.33
2018-08-13T06:15:25.269Z,2.40
2018-08-13T06:17:54.662Z,2.23
2018-08-13T06:20:23.520Z,3.47
2018-08-13T06:22:52.159Z,2.43
2018-08-13T06:25:21.166Z,4.63
2018-08-13T06:27:49.702Z,4.23
2018-08-13T06:30:18.345Z,2.00
2018-08-13T06:32:47.360Z,1.93
2018-08-13T06:35:16.556Z,1.87
2018-08-13T06:37:45.170Z,2.87
2018-08-13T06:40:14.087Z,4.10
2018-08-13T06:42:42.739Z,4.57
2018-08-13T06:45:11.879Z,2.10
2018-08-13T06:47:41.078Z,2.60
2018-08-13T06:50:11.919Z,3.17
2018-08-13T06:52:40.561Z,4.60
2018-08-13T06:55:09.661Z,4.30
2018-08-13T06:57:38.382Z,2.40
2018-08-13T07:00:08.585Z,4.00
2018-08-13T07:02:37.176Z,5.40
2018-08-13T07:05:07.248Z,2.20
2018-08-13T07:07:35.960Z,2.60
2018-08-13T07:10:05.297Z,2.77
2018-08-13T07:12:34.106Z,3.13
2018-08-13T07:15:03.251Z,2.30
2018-08-13T07:17:31.946Z,2.83
2018-08-13T07:20:00.789Z,3.77
2018-08-13T07:22:29.432Z,2.73
2018-08-13T07:24:57.988Z,2.10
2018-08-13T07:27:27.551Z,2.53
2018-08-13T07:29:56.064Z,2.30
2018-08-13T07:32:25.477Z,4.63
2018-08-13T07:34:54.078Z,2.30
2018-08-13T07:37:23.289Z,2.10
2018-08-13T07:39:52.148Z,2.60
2018-08-13T07:42:20.769Z,2.77
2018-08-13T07:44:49.803Z,4.20
2018-08-13T07:47:18.363Z,4.50
2018-08-13T07:49:46.908Z,3.17
2018-08-13T07:52:15.868Z,2.50
2018-08-13T07:54:44.584Z,5.23
2018-08-13T07:57:13.124Z,3.23
2018-08-13T07:59:41.653Z,3.10
2018-08-13T08:02:10.203Z,7.60
2018-08-13T08:04:39.263Z,2.37
2018-08-13T08:07:08.817Z,2.47
2018-08-13T08:09:37.346Z,2.03
2018-08-13T08:12:05.937Z,3.23
2018-08-13T08:14:35.399Z,2.77
2018-08-13T08:17:04.035Z,3.17
2018-08-13T08:19:32.901Z,4.00
2018-08-13T08:22:01.452Z,2.70
2018-08-13T08:24:30.127Z,4.93
2018-08-13T08:26:58.591Z,3.47
2018-08-13T08:29:27.471Z,8.50
2018-08-13T08:31:56.071Z,7.97
2018-08-13T08:34:24.744Z,5.13
2018-08-13T08:36:53.607Z,2.30
2018-08-13T08:39:22.347Z,2.67
2018-08-13T08:41:50.868Z,2.63
2018-08-13T08:44:20.023Z,3.83
2018-08-13T08:46:48.662Z,4.33
2018-08-13T08:49:17.200Z,4.00
2018-08-13T08:51:45.745Z,3.87
2018-08-13T08:54:14.331Z,3.57
2018-08-13T08:56:42.982Z,2.10
2018-08-13T08:59:11.549Z,3.87
2018-08-13T09:01:40.118Z,1.70
2018-08-13T09:04:09.591Z,1.50
2018-08-13T09:06:38.556Z,3.10
2018-08-13T09:09:10.967Z,2.00
2018-08-13T09:11:39.668Z,1.70
2018-08-13T09:14:08.770Z,5.73
2018-08-13T09:16:38.451Z,3.40
2018-08-13T09:19:18.360Z,2.00
2018-08-13T09:21:51.033Z,2.03
2018-08-13T09:24:30.686Z,2.90
2018-08-13T09:27:10.397Z,1.97
2018-08-13T09:29:50.089Z,1.60
2018-08-13T09:32:32.681Z,2.30
2018-08-13T09:35:08.295Z,2.97
2018-08-13T09:37:37.206Z,1.90
2018-08-13T09:40:08.410Z,5.20
2018-08-13T09:42:37.142Z,4.80
2018-08-13T09:45:08.323Z,1.57
2018-08-13T09:47:37.631Z,1.93
2018-08-13T09:50:11.760Z,2.47
2018-08-13T09:52:40.278Z,2.83
2018-08-13T09:55:08.833Z,1.87
2018-08-13T09:57:37.379Z,2.90
2018-08-13T10:00:08.128Z,2.20
2018-08-13T10:02:36.659Z,3.57
2018-08-13T10:05:05.178Z,1.90
2018-08-13T10:07:33.683Z,3.90
2018-08-13T10:10:02.183Z,8.27
2018-08-13T10:12:30.766Z,5.73
2018-08-13T10:14:59.278Z,1.90
2018-08-13T10:17:27.847Z,3.33
2018-08-13T10:19:56.352Z,5.50
2018-08-13T10:22:24.849Z,4.10
2018-08-13T10:24:53.428Z,2.53
2018-08-13T10:27:21.908Z,3.27
2018-08-13T10:29:50.548Z,2.83
2018-08-13T10:32:19.067Z,10.13
2018-08-13T10:34:47.622Z,2.90
2018-08-13T10:37:16.178Z,4.17
2018-08-13T10:39:44.662Z,3.83
2018-08-13T10:42:13.263Z,3.03
2018-08-13T10:44:41.767Z,2.00
2018-08-13T10:47:10.311Z,3.90
2018-08-13T10:49:38.857Z,1.90
2018-08-13T10:52:07.539Z,1.53
2018-08-13T10:54:36.037Z,1.80
2018-08-13T10:57:08.752Z,1.60
2018-08-13T10:59:37.398Z,1.47
2018-08-13T11:02:06.162Z,3.07
2018-08-13T11:04:34.992Z,1.60
2018-08-13T11:07:03.759Z,2.77
2018-08-13T11:09:32.529Z,1.70
2018-08-13T11:12:01.218Z,1.60
2018-08-13T11:14:29.873Z,2.77
2018-08-13T11:16:58.531Z,1.80
2018-08-13T11:19:27.189Z,2.10
2018-08-13T11:21:55.896Z,1.63
2018-08-13T11:24:24.936Z,1.83
2018-08-13T11:26:54.665Z,1.90
2018-08-13T11:29:24.109Z,1.80
2018-08-13T11:31:53.002Z,3.20
2018-08-13T11:34:21.657Z,2.27
2018-08-13T11:36:50.244Z,2.43
2018-08-13T11:39:18.887Z,1.70
2018-08-13T11:41:47.658Z,1.90
2018-08-13T11:44:16.328Z,1.70
2018-08-13T11:46:45.049Z,2.70
2018-08-13T11:49:14.205Z,2.17
2018-08-13T11:51:43.515Z,2.00
2018-08-13T11:54:12.749Z,2.20
2018-08-13T11:56:43.121Z,2.10
2018-08-13T11:59:11.835Z,2.40
2018-08-13T12:01:40.524Z,2.33
2018-08-13T12:04:09.426Z,1.90
2018-08-13T12:06:38.057Z,2.60
2018-08-13T12:09:10.340Z,1.90
2018-08-13T12:11:38.989Z,2.23
2018-08-13T12:14:07.713Z,3.00
2018-08-13T12:16:37.774Z,2.57
2018-08-13T12:19:06.660Z,2.90
2018-08-13T12:21:35.308Z,7.30
2018-08-13T12:24:04.022Z,2.17
2018-08-13T12:26:32.741Z,3.83
2018-08-13T12:29:01.475Z,2.03
2018-08-13T12:31:30.185Z,3.17
2018-08-13T12:33:59.150Z,2.70
2018-08-13T12:36:27.826Z,2.97
2018-08-13T12:38:58.007Z,2.10
2018-08-13T12:41:26.714Z,3.13
2018-08-13T12:43:55.334Z,3.90
2018-08-13T12:46:24.067Z,4.00
2018-08-13T12:48:52.797Z,2.70
2018-08-13T12:51:21.564Z,2.27
2018-08-13T12:53:50.197Z,2.10
2018-08-13T12:56:18.881Z,4.27
2018-08-13T12:58:47.563Z,2.23
2018-08-13T13:01:16.393Z,4.20
2018-08-13T13:03:45.072Z,2.60
2018-08-13T13:06:18.185Z,5.70
2018-08-13T13:08:46.938Z,3.10
2018-08-13T13:11:15.680Z,4.17
2018-08-13T13:13:44.275Z,5.33
2018-08-13T13:16:12.982Z,5.20
2018-08-13T13:18:41.548Z,4.37
2018-08-13T13:21:10.265Z,4.57
2018-08-13T13:23:38.924Z,4.23
2018-08-13T13:26:07.526Z,5.00
2018-08-13T13:28:36.221Z,2.60
2018-08-13T13:31:04.929Z,3.43
2018-08-13T13:33:33.606Z,3.70
2018-08-13T13:36:02.234Z,2.87
2018-08-13T13:38:30.905Z,7.67
2018-08-13T13:40:59.625Z,2.90
2018-08-13T13:43:28.426Z,2.13
2018-08-13T13:45:57.079Z,2.57
2018-08-13T13:48:25.800Z,3.70
2018-08-13T13:50:54.549Z,6.43
2018-08-13T13:53:23.171Z,2.43
2018-08-13T13:55:52.082Z,1.90
2018-08-13T13:58:20.937Z,1.77
2018-08-13T14:00:49.655Z,3.77
2018-08-13T14:03:18.407Z,3.50
2018-08-13T14:05:47.044Z,3.97
2018-08-13T14:08:15.837Z,4.00
2018-08-13T14:10:44.863Z,2.60
2018-08-13T14:13:14.768Z,5.90
2018-08-13T14:15:45.067Z,2.93
2018-08-13T14:18:13.990Z,4.50
2018-08-13T14:20:42.535Z,1.90
2018-08-13T14:23:11.167Z,2.07
2018-08-13T14:25:39.905Z,5.37
2018-08-13T14:28:08.937Z,2.07
2018-08-13T14:30:37.680Z,2.00
2018-08-13T14:33:07.443Z,4.53
2018-08-13T14:35:36.097Z,3.03
2018-08-13T14:38:05.785Z,2.67
2018-08-13T14:40:34.493Z,2.30
2018-08-13T14:43:03.156Z,2.10
2018-08-13T14:45:31.805Z,2.40
2018-08-13T14:48:00.472Z,2.43
2018-08-13T14:50:29.075Z,2.40
2018-08-13T14:52:57.730Z,2.93
2018-08-13T14:55:26.501Z,2.10
2018-08-13T14:57:55.283Z,4.00
2018-08-13T15:00:26.529Z,3.13
2018-08-13T15:02:56.248Z,3.97
2018-08-13T15:05:25.166Z,6.57
2018-08-13T15:07:53.994Z,2.37
2018-08-13T15:10:24.192Z,2.40
2018-08-13T15:12:53.096Z,2.60
2018-08-13T15:15:22.235Z,3.27
2018-08-13T15:17:50.964Z,2.83
2018-08-13T15:20:26.018Z,4.33
2018-08-13T15:22:55.443Z,2.60
2018-08-13T15:25:25.062Z,2.80
2018-08-13T15:27:54.495Z,2.67
2018-08-13T15:30:24.249Z,2.50
2018-08-13T15:32:53.738Z,2.63
2018-08-13T15:35:22.866Z,2.80
2018-08-13T15:37:52.309Z,2.60
2018-08-13T15:40:21.173Z,2.70
2018-08-13T15:42:50.048Z,4.53
2018-08-13T15:45:21.610Z,2.50
2018-08-13T15:47:51.665Z,4.70
2018-08-13T15:50:21.821Z,2.27
2018-08-13T15:57:19.926Z,3.07
2018-08-13T15:59:48.861Z,2.57
2018-08-13T16:02:17.924Z,4.43
2018-08-13T16:04:47.147Z,2.40
2018-08-13T16:07:15.699Z,2.60
2018-08-13T16:09:47.437Z,2.67
2018-08-13T16:12:16.046Z,2.60
2018-08-13T16:14:45.014Z,5.23
2018-08-13T16:17:15.661Z,2.03
2018-08-13T16:19:44.585Z,1.97
2018-08-13T16:22:13.106Z,2.17
2018-08-13T16:24:41.919Z,3.47
2018-08-13T16:27:10.594Z,3.27
2018-08-13T16:29:39.456Z,2.00
2018-08-13T16:32:08.152Z,4.00
2018-08-13T16:34:36.893Z,5.63
2018-08-13T16:37:05.778Z,2.63
2018-08-13T16:39:34.353Z,2.20
2018-08-13T16:42:02.994Z,3.30
2018-08-13T16:44:31.554Z,1.70
2018-08-13T16:47:02.361Z,2.43
2018-08-13T16:49:33.531Z,2.40
2018-08-13T16:52:05.255Z,4.97
2018-08-13T16:54:35.515Z,1.80
2018-08-13T16:57:04.084Z,1.80
2018-08-13T16:59:32.676Z,2.40
2018-08-13T17:02:01.212Z,2.27
2018-08-13T17:04:29.740Z,1.90
2018-08-13T17:06:58.260Z,4.60
2018-08-13T17:09:26.894Z,6.73
2018-08-13T17:11:55.429Z,2.07
2018-08-13T17:14:24.243Z,5.67
2018-08-13T17:16:52.569Z,3.00
2018-08-13T17:19:21.205Z,2.70
2018-08-13T17:21:49.748Z,2.43
2018-08-13T17:24:18.550Z,6.37
2018-08-13T17:26:47.131Z,3.27
2018-08-13T17:29:15.713Z,2.87
2018-08-13T17:31:44.359Z,5.53
2018-08-13T17:34:13.101Z,6.90
2018-08-13T17:36:41.673Z,3.70
2018-08-13T17:39:12.881Z,3.33
2018-08-13T17:41:41.964Z,2.93
2018-08-13T17:44:10.719Z,2.50
2018-08-13T17:46:39.775Z,3.20
2018-08-13T17:49:08.956Z,5.60
2018-08-13T17:51:37.980Z,3.30
2018-08-13T17:54:06.558Z,3.57
2018-08-13T17:56:35.169Z,3.40
2018-08-13T17:59:03.743Z,3.67
2018-08-13T18:01:32.423Z,3.30
2018-08-13T18:04:00.927Z,4.07
2018-08-13T18:06:29.532Z,3.60
2018-08-13T18:08:58.150Z,6.47
2018-08-13T18:11:26.724Z,4.10
2018-08-13T18:13:55.312Z,5.03
2018-08-13T18:16:23.819Z,2.87
2018-08-13T18:18:52.353Z,4.43
2018-08-13T18:21:21.004Z,3.60
2018-08-13T18:23:49.475Z,3.23
2018-08-13T18:26:17.981Z,5.10
2018-08-13T18:28:46.518Z,3.73
2018-08-13T18:31:15.057Z,4.20
2018-08-13T18:33:43.626Z,3.90
2018-08-13T18:36:12.062Z,3.37
2018-08-13T18:38:40.580Z,3.87
2018-08-13T18:41:09.133Z,3.53
2018-08-13T18:43:37.657Z,3.47
2018-08-13T18:46:06.161Z,3.37
2018-08-13T18:48:34.689Z,3.53
2018-08-13T18:51:03.229Z,3.53
2018-08-13T18:53:31.801Z,3.43
2018-08-13T18:56:00.400Z,4.03
2018-08-13T18:58:28.949Z,4.17
2018-08-13T19:00:57.503Z,3.80
2018-08-13T19:03:26.014Z,3.30
2018-08-13T19:05:54.517Z,3.73
2018-08-13T19:08:23.108Z,3.60
2018-08-13T19:10:51.630Z,3.00
2018-08-13T19:13:20.206Z,2.70
2018-08-13T19:15:48.697Z,2.83
2018-08-13T19:18:17.442Z,3.50
2018-08-13T19:20:45.995Z,3.23
2018-08-13T19:23:14.623Z,3.37
2018-08-13T19:25:43.115Z,3.77
2018-08-13T19:28:11.605Z,3.93
2018-08-13T19:30:40.112Z,3.17
2018-08-13T19:33:08.769Z,3.77
2018-08-13T19:35:37.306Z,3.63
2018-08-13T19:38:05.871Z,3.30
2018-08-13T19:40:34.378Z,3.23
2018-08-13T19:43:02.996Z,3.00
2018-08-13T19:45:31.512Z,3.00
2018-08-13T19:48:00.429Z,3.37
2018-08-13T19:50:29.067Z,3.30
2018-08-13T19:52:57.587Z,3.40
2018-08-13T19:55:26.484Z,3.13
2018-08-13T19:57:54.961Z,4.30
2018-08-13T20:00:26.663Z,2.17
2018-08-13T20:02:55.575Z,3.03
2018-08-13T20:05:25.328Z,2.20
2018-08-13T20:07:54.750Z,2.67
2018-08-13T20:10:23.331Z,2.50
2018-08-13T20:12:51.892Z,2.20
2018-08-13T20:15:20.453Z,2.20
2018-08-13T20:17:48.988Z,2.80
2018-08-13T20:20:19.547Z,2.43
2018-08-13T20:22:48.617Z,2.10
2018-08-13T20:25:18.197Z,2.57
2018-08-13T20:27:47.164Z,2.60
2018-08-13T20:30:17.407Z,2.70
2018-08-13T20:32:47.359Z,2.50
2018-08-13T20:35:15.833Z,3.10
2018-08-13T20:37:44.343Z,3.10
2018-08-13T20:40:14.777Z,3.30
2018-08-13T20:42:43.949Z,4.10
2018-08-13T20:45:14.743Z,3.47
2018-08-13T20:47:43.952Z,3.67
2018-08-13T20:50:15.208Z,3.40
2018-08-13T20:52:44.211Z,3.90
2018-08-13T20:55:16.040Z,4.23
2018-08-13T20:57:45.293Z,4.50
2018-08-13T21:00:14.932Z,4.57
2018-08-13T21:02:44.886Z,4.57
2018-08-13T21:05:13.474Z,5.00
2018-08-13T21:07:42.166Z,5.13
2018-08-13T21:10:13.239Z,5.40
2018-08-13T21:12:41.725Z,7.03
2018-08-13T21:15:12.351Z,6.43
2018-08-13T21:17:41.046Z,7.10
2018-08-13T21:20:11.378Z,7.40
2018-08-13T21:22:39.858Z,7.37
2018-08-13T21:25:11.880Z,8.47
2018-08-13T21:27:40.806Z,9.03
2018-08-13T21:30:09.494Z,9.30
2018-08-13T21:32:38.074Z,9.00
2018-08-13T21:35:06.884Z,8.37
2018-08-13T21:37:35.750Z,9.30
2018-08-13T21:40:05.192Z,9.27
2018-08-13T21:42:33.794Z,9.90
2018-08-13T21:45:02.411Z,10.07
2018-08-13T21:47:30.929Z,10.57
2018-08-13T21:49:59.470Z,10.57
2018-08-13T21:52:27.991Z,11.70
2018-08-13T21:54:56.512Z,11.80
2018-08-13T21:57:25.517Z,12.20
2018-08-13T21:59:55.270Z,12.90
2018-08-13T22:02:23.778Z,12.23
2018-08-13T22:04:52.242Z,12.90
2018-08-13T22:07:20.986Z,13.17
2018-08-13T22:09:49.597Z,13.10
2018-08-13T22:12:19.854Z,13.20
2018-08-13T22:14:48.811Z,13.03
2018-08-13T22:17:17.521Z,13.50
2018-08-13T22:19:46.094Z,14.00
2018-08-13T22:22:15.342Z,15.23
2018-08-13T22:24:55.305Z,15.47
2018-08-13T22:27:24.014Z,15.30
2018-08-13T22:29:52.844Z,15.40
2018-08-13T22:32:21.693Z,14.97
2018-08-13T22:34:51.017Z,17.30
2018-08-13T22:37:19.729Z,17.47
2018-08-13T22:39:48.439Z,16.03
2018-08-13T22:42:17.186Z,17.20
2018-08-13T22:44:45.875Z,17.97
2018-08-13T22:47:14.531Z,18.13
2018-08-13T22:49:43.619Z,20.27
2018-08-13T22:52:12.492Z,19.97
2018-08-13T22:54:41.854Z,21.67
2018-08-13T22:57:10.781Z,23.97
2018-08-13T22:59:39.766Z,23.20
2018-08-13T23:02:08.485Z,20.43
2018-08-13T23:04:37.404Z,20.13
2018-08-13T23:07:06.539Z,20.03
2018-08-13T23:09:35.112Z,21.57
2018-08-13T23:12:05.038Z,20.23
2018-08-13T23:14:33.652Z,20.60
2018-08-13T23:17:02.280Z,20.10
2018-08-13T23:19:30.780Z,21.37
2018-08-13T23:21:59.646Z,19.67
2018-08-13T23:24:28.303Z,21.97
2018-08-13T23:26:56.958Z,23.63
2018-08-13T23:29:25.795Z,24.57
2018-08-13T23:31:54.314Z,26.37
2018-08-13T23:34:22.929Z,29.20
2018-08-13T23:36:51.523Z,25.00
2018-08-13T23:39:20.044Z,25.93
2018-08-13T23:41:48.771Z,23.80
2018-08-13T23:44:17.426Z,24.23
2018-08-13T23:46:45.928Z,22.13
2018-08-13T23:49:14.627Z,23.20
2018-08-13T23:51:43.451Z,22.63
2018-08-13T23:54:11.899Z,21.70
2018-08-13T23:56:40.417Z,22.70
2018-08-13T23:59:08.911Z,24.17
